sensor_id;sensor_type;location;lat;lon;timestamp;pressure;altitude;pressure_sealevel;temperature;humidity
64298;BME280;50639;53.270;7.956;2023-04-19T00:00:29;103132.44;;;6.92;75.51
64298;BME280;50639;53.270;7.956;2023-04-19T00:02:55;103144.66;;;6.94;74.84
64298;BME280;50639;53.270;7.956;2023-04-19T00:05:21;103148.59;;;6.89;75.01
64298;BME280;50639;53.270;7.956;2023-04-19T00:07:49;103135.44;;;6.74;76.24
64298;BME280;50639;53.270;7.956;2023-04-19T00:10:15;103138.94;;;6.75;75.84
64298;BME280;50639;53.270;7.956;2023-04-19T00:12:41;103146.16;;;6.73;75.55
64298;BME280;50639;53.270;7.956;2023-04-19T00:15:07;103144.47;;;6.72;76.17
64298;BME280;50639;53.270;7.956;2023-04-19T00:17:33;103142.16;;;6.67;76.13
64298;BME280;50639;53.270;7.956;2023-04-19T00:19:59;103146.72;;;6.65;75.22
64298;BME280;50639;53.270;7.956;2023-04-19T00:22:25;103140.66;;;6.63;75.17
64298;BME280;50639;53.270;7.956;2023-04-19T00:24:51;103143.19;;;6.52;75.72
64298;BME280;50639;53.270;7.956;2023-04-19T00:27:17;103143.00;;;6.55;75.46
64298;BME280;50639;53.270;7.956;2023-04-19T00:29:42;103146.81;;;6.51;75.28
64298;BME280;50639;53.270;7.956;2023-04-19T00:32:08;103141.19;;;6.43;75.96
64298;BME280;50639;53.270;7.956;2023-04-19T00:34:33;103138.13;;;6.36;75.00
64298;BME280;50639;53.270;7.956;2023-04-19T00:36:59;103135.56;;;6.35;75.48
64298;BME280;50639;53.270;7.956;2023-04-19T00:39:24;103126.03;;;6.32;75.03
64298;BME280;50639;53.270;7.956;2023-04-19T00:41:50;103133.34;;;6.29;75.20
64298;BME280;50639;53.270;7.956;2023-04-19T00:44:17;103130.16;;;6.24;75.25
64298;BME280;50639;53.270;7.956;2023-04-19T00:46:43;103131.13;;;6.23;75.08
64298;BME280;50639;53.270;7.956;2023-04-19T00:49:09;103123.47;;;6.18;74.61
64298;BME280;50639;53.270;7.956;2023-04-19T00:51:35;103127.91;;;6.18;74.40
64298;BME280;50639;53.270;7.956;2023-04-19T00:54:02;103128.75;;;6.18;74.12
64298;BME280;50639;53.270;7.956;2023-04-19T00:56:28;103131.75;;;6.14;74.70
64298;BME280;50639;53.270;7.956;2023-04-19T00:58:55;103126.44;;;6.14;74.27
64298;BME280;50639;53.270;7.956;2023-04-19T01:01:21;103122.72;;;6.03;73.82
64298;BME280;50639;53.270;7.956;2023-04-19T01:03:48;103124.31;;;6.06;74.10
64298;BME280;50639;53.270;7.956;2023-04-19T01:06:14;103125.38;;;6.03;73.91
64298;BME280;50639;53.270;7.956;2023-04-19T01:08:40;103123.75;;;6.01;73.63
64298;BME280;50639;53.270;7.956;2023-04-19T01:11:06;103127.47;;;5.98;74.28
64298;BME280;50639;53.270;7.956;2023-04-19T01:13:35;103125.03;;;5.95;73.75
64298;BME280;50639;53.270;7.956;2023-04-19T01:16:01;103129.59;;;5.93;74.06
64298;BME280;50639;53.270;7.956;2023-04-19T01:18:26;103128.94;;;5.90;74.30
64298;BME280;50639;53.270;7.956;2023-04-19T01:20:57;103120.63;;;5.82;73.85
64298;BME280;50639;53.270;7.956;2023-04-19T01:23:23;103121.03;;;5.76;74.31
64298;BME280;50639;53.270;7.956;2023-04-19T01:25:49;103123.25;;;5.82;73.35
64298;BME280;50639;53.270;7.956;2023-04-19T01:28:14;103129.66;;;5.79;73.45
64298;BME280;50639;53.270;7.956;2023-04-19T01:30:41;103129.75;;;5.78;73.93
64298;BME280;50639;53.270;7.956;2023-04-19T01:33:06;103128.22;;;5.74;73.79
64298;BME280;50639;53.270;7.956;2023-04-19T01:35:32;103134.72;;;5.70;73.53
64298;BME280;50639;53.270;7.956;2023-04-19T01:37:58;103129.69;;;5.65;72.86
64298;BME280;50639;53.270;7.956;2023-04-19T01:40:24;103126.50;;;5.60;73.52
64298;BME280;50639;53.270;7.956;2023-04-19T01:42:50;103130.31;;;5.56;73.46
64298;BME280;50639;53.270;7.956;2023-04-19T01:45:16;103132.00;;;5.57;73.04
64298;BME280;50639;53.270;7.956;2023-04-19T01:47:42;103131.25;;;5.55;72.17
64298;BME280;50639;53.270;7.956;2023-04-19T01:50:07;103118.81;;;5.43;73.11
64298;BME280;50639;53.270;7.956;2023-04-19T01:52:34;103124.03;;;5.44;73.29
64298;BME280;50639;53.270;7.956;2023-04-19T01:54:59;103125.16;;;5.40;72.55
64298;BME280;50639;53.270;7.956;2023-04-19T01:57:25;103126.78;;;5.43;72.45
64298;BME280;50639;53.270;7.956;2023-04-19T01:59:52;103123.69;;;5.36;72.53
64298;BME280;50639;53.270;7.956;2023-04-19T02:02:18;103119.88;;;5.40;72.11
64298;BME280;50639;53.270;7.956;2023-04-19T02:04:43;103113.47;;;5.30;71.86
64298;BME280;50639;53.270;7.956;2023-04-19T02:07:09;103114.53;;;5.27;72.04
64298;BME280;50639;53.270;7.956;2023-04-19T02:09:35;103113.00;;;5.23;71.89
64298;BME280;50639;53.270;7.956;2023-04-19T02:12:02;103121.72;;;5.25;72.02
64298;BME280;50639;53.270;7.956;2023-04-19T02:14:29;103119.44;;;5.19;72.54
64298;BME280;50639;53.270;7.956;2023-04-19T02:16:54;103118.41;;;5.22;71.96
64298;BME280;50639;53.270;7.956;2023-04-19T02:19:20;103120.63;;;5.15;72.08
64298;BME280;50639;53.270;7.956;2023-04-19T02:21:45;103116.34;;;5.13;72.17
64298;BME280;50639;53.270;7.956;2023-04-19T02:24:13;103119.31;;;5.08;71.78
64298;BME280;50639;53.270;7.956;2023-04-19T02:26:38;103120.44;;;5.04;71.71
64298;BME280;50639;53.270;7.956;2023-04-19T02:29:05;103115.91;;;5.06;71.93
64298;BME280;50639;53.270;7.956;2023-04-19T02:31:30;103131.03;;;5.04;72.22
64298;BME280;50639;53.270;7.956;2023-04-19T02:33:56;103126.69;;;5.03;71.52
64298;BME280;50639;53.270;7.956;2023-04-19T02:36:21;103123.31;;;5.01;71.34
64298;BME280;50639;53.270;7.956;2023-04-19T02:38:47;103126.41;;;4.93;72.02
64298;BME280;50639;53.270;7.956;2023-04-19T02:41:12;103121.97;;;4.94;71.10
64298;BME280;50639;53.270;7.956;2023-04-19T02:43:38;103124.91;;;4.89;71.38
64298;BME280;50639;53.270;7.956;2023-04-19T02:46:03;103129.06;;;4.93;71.62
64298;BME280;50639;53.270;7.956;2023-04-19T02:48:29;103132.19;;;4.86;71.36
64298;BME280;50639;53.270;7.956;2023-04-19T02:50:54;103128.41;;;4.76;71.41
64298;BME280;50639;53.270;7.956;2023-04-19T02:53:21;103133.06;;;4.72;71.72
64298;BME280;50639;53.270;7.956;2023-04-19T02:55:47;103135.91;;;4.69;72.12
64298;BME280;50639;53.270;7.956;2023-04-19T02:58:16;103129.66;;;4.70;71.63
64298;BME280;50639;53.270;7.956;2023-04-19T03:00:53;103129.84;;;4.67;71.43
64298;BME280;50639;53.270;7.956;2023-04-19T03:03:21;103136.94;;;4.67;71.26
64298;BME280;50639;53.270;7.956;2023-04-19T03:05:46;103131.75;;;4.65;70.68
64298;BME280;50639;53.270;7.956;2023-04-19T03:08:11;103125.78;;;4.62;70.94
64298;BME280;50639;53.270;7.956;2023-04-19T03:10:38;103134.59;;;4.62;70.61
64298;BME280;50639;53.270;7.956;2023-04-19T03:13:03;103133.06;;;4.58;71.04
64298;BME280;50639;53.270;7.956;2023-04-19T03:15:29;103136.69;;;4.57;70.32
64298;BME280;50639;53.270;7.956;2023-04-19T03:17:55;103142.41;;;4.49;70.90
64298;BME280;50639;53.270;7.956;2023-04-19T03:20:21;103136.19;;;4.50;70.85
64298;BME280;50639;53.270;7.956;2023-04-19T03:22:47;103125.59;;;4.50;70.17
64298;BME280;50639;53.270;7.956;2023-04-19T03:25:12;103124.97;;;4.47;71.29
64298;BME280;50639;53.270;7.956;2023-04-19T03:27:41;103132.22;;;4.43;70.66
64298;BME280;50639;53.270;7.956;2023-04-19T03:30:11;103132.69;;;4.36;71.33
64298;BME280;50639;53.270;7.956;2023-04-19T03:32:38;103127.31;;;4.37;70.83
64298;BME280;50639;53.270;7.956;2023-04-19T03:35:06;103120.50;;;4.33;71.05
64298;BME280;50639;53.270;7.956;2023-04-19T03:37:33;103123.91;;;4.35;70.96
64298;BME280;50639;53.270;7.956;2023-04-19T03:39:58;103123.91;;;4.35;70.71
64298;BME280;50639;53.270;7.956;2023-04-19T03:42:30;103124.06;;;4.32;70.78
64298;BME280;50639;53.270;7.956;2023-04-19T03:45:16;103129.09;;;4.37;70.53
64298;BME280;50639;53.270;7.956;2023-04-19T03:47:45;103119.94;;;4.28;70.75
64298;BME280;50639;53.270;7.956;2023-04-19T03:50:11;103119.34;;;4.23;71.01
64298;BME280;50639;53.270;7.956;2023-04-19T03:52:39;103121.25;;;4.21;70.71
64298;BME280;50639;53.270;7.956;2023-04-19T03:55:05;103112.81;;;4.14;70.91
64298;BME280;50639;53.270;7.956;2023-04-19T03:57:34;103115.66;;;4.11;70.70
64298;BME280;50639;53.270;7.956;2023-04-19T04:00:07;103113.38;;;4.05;71.08
64298;BME280;50639;53.270;7.956;2023-04-19T04:02:39;103111.09;;;3.99;71.69
64298;BME280;50639;53.270;7.956;2023-04-19T04:05:05;103121.03;;;3.96;71.53
64298;BME280;50639;53.270;7.956;2023-04-19T04:07:32;103122.03;;;3.93;71.28
64298;BME280;50639;53.270;7.956;2023-04-19T04:09:59;103129.97;;;3.93;71.44
64298;BME280;50639;53.270;7.956;2023-04-19T04:12:25;103124.78;;;3.92;71.58
64298;BME280;50639;53.270;7.956;2023-04-19T04:14:52;103125.16;;;3.86;71.50
64298;BME280;50639;53.270;7.956;2023-04-19T04:17:20;103129.59;;;3.85;71.63
64298;BME280;50639;53.270;7.956;2023-04-19T04:19:45;103136.47;;;3.88;71.51
64298;BME280;50639;53.270;7.956;2023-04-19T04:22:11;103134.66;;;3.88;71.56
64298;BME280;50639;53.270;7.956;2023-04-19T04:24:41;103133.06;;;3.86;71.64
64298;BME280;50639;53.270;7.956;2023-04-19T04:27:19;103134.19;;;3.82;71.77
64298;BME280;50639;53.270;7.956;2023-04-19T04:29:47;103133.66;;;3.91;72.33
64298;BME280;50639;53.270;7.956;2023-04-19T04:32:14;103126.56;;;3.91;71.04
64298;BME280;50639;53.270;7.956;2023-04-19T04:34:43;103128.09;;;3.95;71.06
64298;BME280;50639;53.270;7.956;2023-04-19T04:37:14;103135.91;;;3.97;70.63
64298;BME280;50639;53.270;7.956;2023-04-19T04:39:41;103142.06;;;3.97;70.69
64298;BME280;50639;53.270;7.956;2023-04-19T04:42:08;103141.13;;;3.98;70.78
64298;BME280;50639;53.270;7.956;2023-04-19T04:44:35;103145.56;;;3.98;70.66
64298;BME280;50639;53.270;7.956;2023-04-19T04:47:01;103136.88;;;3.96;70.82
64298;BME280;50639;53.270;7.956;2023-04-19T04:49:30;103145.22;;;4.04;71.49
64298;BME280;50639;53.270;7.956;2023-04-19T04:51:57;103143.75;;;4.28;71.90
64298;BME280;50639;53.270;7.956;2023-04-19T04:54:24;103142.75;;;4.15;70.40
64298;BME280;50639;53.270;7.956;2023-04-19T04:56:50;103130.47;;;4.14;70.54
64298;BME280;50639;53.270;7.956;2023-04-19T04:59:16;103136.81;;;4.11;70.21
64298;BME280;50639;53.270;7.956;2023-04-19T05:01:45;103148.81;;;4.17;70.00
64298;BME280;50639;53.270;7.956;2023-04-19T05:04:11;103137.94;;;4.07;69.84
64298;BME280;50639;53.270;7.956;2023-04-19T05:06:37;103139.56;;;4.10;70.54
64298;BME280;50639;53.270;7.956;2023-04-19T05:09:07;103144.66;;;4.13;70.34
64298;BME280;50639;53.270;7.956;2023-04-19T05:11:33;103135.97;;;4.11;70.64
64298;BME280;50639;53.270;7.956;2023-04-19T05:13:59;103134.81;;;4.15;70.50
64298;BME280;50639;53.270;7.956;2023-04-19T05:16:26;103129.34;;;4.18;70.40
64298;BME280;50639;53.270;7.956;2023-04-19T05:18:52;103136.75;;;4.27;70.48
64298;BME280;50639;53.270;7.956;2023-04-19T05:21:17;103133.81;;;4.32;70.35
64298;BME280;50639;53.270;7.956;2023-04-19T05:23:43;103136.97;;;4.38;70.00
64298;BME280;50639;53.270;7.956;2023-04-19T05:26:11;103138.91;;;4.49;69.27
64298;BME280;50639;53.270;7.956;2023-04-19T05:28:40;103133.81;;;4.60;70.20
64298;BME280;50639;53.270;7.956;2023-04-19T05:31:10;103136.00;;;4.68;69.00
64298;BME280;50639;53.270;7.956;2023-04-19T05:33:49;103133.34;;;4.82;68.43
64298;BME280;50639;53.270;7.956;2023-04-19T05:36:14;103132.97;;;4.88;67.85
64298;BME280;50639;53.270;7.956;2023-04-19T05:38:40;103132.28;;;4.99;67.52
64298;BME280;50639;53.270;7.956;2023-04-19T05:41:06;103125.19;;;4.99;67.25
64298;BME280;50639;53.270;7.956;2023-04-19T05:43:31;103130.44;;;5.13;66.99
64298;BME280;50639;53.270;7.956;2023-04-19T05:45:57;103139.69;;;5.20;66.55
64298;BME280;50639;53.270;7.956;2023-04-19T05:48:24;103131.66;;;5.22;67.21
64298;BME280;50639;53.270;7.956;2023-04-19T05:51:12;103136.19;;;5.34;66.47
64298;BME280;50639;53.270;7.956;2023-04-19T05:53:50;103120.19;;;5.36;66.93
64298;BME280;50639;53.270;7.956;2023-04-19T05:56:18;103135.69;;;5.54;66.45
64298;BME280;50639;53.270;7.956;2023-04-19T05:58:43;103140.63;;;5.60;66.21
64298;BME280;50639;53.270;7.956;2023-04-19T06:01:09;103140.97;;;5.68;65.92
64298;BME280;50639;53.270;7.956;2023-04-19T06:03:35;103136.00;;;5.77;65.27
64298;BME280;50639;53.270;7.956;2023-04-19T06:06:01;103131.03;;;5.85;64.67
64298;BME280;50639;53.270;7.956;2023-04-19T06:08:26;103131.38;;;5.93;64.76
64298;BME280;50639;53.270;7.956;2023-04-19T06:10:53;103136.81;;;6.04;64.47
64298;BME280;50639;53.270;7.956;2023-04-19T06:13:20;103128.78;;;6.06;64.00
64298;BME280;50639;53.270;7.956;2023-04-19T06:15:47;103132.06;;;6.22;63.66
64298;BME280;50639;53.270;7.956;2023-04-19T06:18:12;103142.34;;;6.26;63.62
64298;BME280;50639;53.270;7.956;2023-04-19T06:20:38;103139.81;;;6.25;64.71
64298;BME280;50639;53.270;7.956;2023-04-19T06:23:05;103135.78;;;6.32;64.33
64298;BME280;50639;53.270;7.956;2023-04-19T06:25:31;103137.69;;;6.42;63.82
64298;BME280;50639;53.270;7.956;2023-04-19T06:27:56;103140.44;;;6.54;63.41
64298;BME280;50639;53.270;7.956;2023-04-19T06:30:22;103136.84;;;6.67;61.67
64298;BME280;50639;53.270;7.956;2023-04-19T06:32:47;103128.53;;;6.72;63.11
64298;BME280;50639;53.270;7.956;2023-04-19T06:35:13;103126.72;;;6.85;61.53
64298;BME280;50639;53.270;7.956;2023-04-19T06:37:39;103131.53;;;7.04;60.95
64298;BME280;50639;53.270;7.956;2023-04-19T06:40:05;103139.63;;;7.02;60.33
64298;BME280;50639;53.270;7.956;2023-04-19T06:42:35;103129.63;;;7.06;61.14
64298;BME280;50639;53.270;7.956;2023-04-19T06:45:00;103122.47;;;7.19;60.53
64298;BME280;50639;53.270;7.956;2023-04-19T06:47:26;103124.78;;;7.24;60.95
64298;BME280;50639;53.270;7.956;2023-04-19T06:49:52;103130.63;;;7.29;60.21
64298;BME280;50639;53.270;7.956;2023-04-19T06:52:18;103110.69;;;7.34;60.28
64298;BME280;50639;53.270;7.956;2023-04-19T06:54:47;103124.22;;;7.55;57.95
64298;BME280;50639;53.270;7.956;2023-04-19T06:57:14;103120.06;;;7.75;58.20
64298;BME280;50639;53.270;7.956;2023-04-19T06:59:39;103122.03;;;7.84;58.41
64298;BME280;50639;53.270;7.956;2023-04-19T07:02:05;103122.72;;;7.75;57.50
64298;BME280;50639;53.270;7.956;2023-04-19T07:04:31;103116.25;;;7.90;57.06
64298;BME280;50639;53.270;7.956;2023-04-19T07:06:56;103124.25;;;7.90;57.96
64298;BME280;50639;53.270;7.956;2023-04-19T07:09:22;103123.06;;;8.05;56.99
64298;BME280;50639;53.270;7.956;2023-04-19T07:11:47;103120.03;;;8.10;56.74
64298;BME280;50639;53.270;7.956;2023-04-19T07:14:14;103117.75;;;8.05;57.19
64298;BME280;50639;53.270;7.956;2023-04-19T07:16:41;103117.88;;;8.15;57.14
64298;BME280;50639;53.270;7.956;2023-04-19T07:19:07;103123.22;;;8.15;56.63
64298;BME280;50639;53.270;7.956;2023-04-19T07:21:32;103118.63;;;8.28;55.98
64298;BME280;50639;53.270;7.956;2023-04-19T07:23:59;103125.22;;;8.35;55.60
64298;BME280;50639;53.270;7.956;2023-04-19T07:26:24;103120.47;;;8.39;55.75
64298;BME280;50639;53.270;7.956;2023-04-19T07:28:50;103124.25;;;8.47;54.39
64298;BME280;50639;53.270;7.956;2023-04-19T07:31:16;103114.09;;;8.52;53.97
64298;BME280;50639;53.270;7.956;2023-04-19T07:33:43;103118.31;;;8.55;53.90
64298;BME280;50639;53.270;7.956;2023-04-19T07:36:09;103114.22;;;8.51;55.73
64298;BME280;50639;53.270;7.956;2023-04-19T07:38:35;103106.06;;;8.63;54.51
64298;BME280;50639;53.270;7.956;2023-04-19T07:41:00;103110.56;;;8.74;53.88
64298;BME280;50639;53.270;7.956;2023-04-19T07:43:26;103106.69;;;8.78;54.98
64298;BME280;50639;53.270;7.956;2023-04-19T07:45:53;103117.47;;;8.77;54.73
64298;BME280;50639;53.270;7.956;2023-04-19T07:48:19;103108.13;;;8.82;54.02
64298;BME280;50639;53.270;7.956;2023-04-19T07:50:44;103104.16;;;8.88;52.78
64298;BME280;50639;53.270;7.956;2023-04-19T07:53:10;103103.00;;;9.01;53.23
64298;BME280;50639;53.270;7.956;2023-04-19T07:55:35;103106.19;;;8.95;53.90
64298;BME280;50639;53.270;7.956;2023-04-19T07:58:01;103100.81;;;9.06;53.77
64298;BME280;50639;53.270;7.956;2023-04-19T08:00:27;103100.34;;;9.13;53.63
64298;BME280;50639;53.270;7.956;2023-04-19T08:02:55;103090.22;;;9.27;53.15
64298;BME280;50639;53.270;7.956;2023-04-19T08:05:22;103101.34;;;9.32;52.65
64298;BME280;50639;53.270;7.956;2023-04-19T08:07:47;103103.50;;;9.50;52.79
64298;BME280;50639;53.270;7.956;2023-04-19T08:10:13;103101.78;;;9.49;53.02
64298;BME280;50639;53.270;7.956;2023-04-19T08:12:40;103100.22;;;9.46;52.65
64298;BME280;50639;53.270;7.956;2023-04-19T08:15:07;103105.75;;;9.54;52.21
64298;BME280;50639;53.270;7.956;2023-04-19T08:17:33;103086.84;;;9.78;50.50
64298;BME280;50639;53.270;7.956;2023-04-19T08:19:58;103089.06;;;9.94;51.58
64298;BME280;50639;53.270;7.956;2023-04-19T08:22:24;103096.09;;;9.95;50.47
64298;BME280;50639;53.270;7.956;2023-04-19T08:24:50;103091.22;;;10.00;49.75
64298;BME280;50639;53.270;7.956;2023-04-19T08:27:19;103091.22;;;10.00;49.09
64298;BME280;50639;53.270;7.956;2023-04-19T08:29:44;103089.41;;;10.00;50.62
64298;BME280;50639;53.270;7.956;2023-04-19T08:32:11;103088.72;;;10.08;48.38
64298;BME280;50639;53.270;7.956;2023-04-19T08:34:37;103088.69;;;10.19;47.19
64298;BME280;50639;53.270;7.956;2023-04-19T08:37:04;103069.47;;;10.25;48.36
64298;BME280;50639;53.270;7.956;2023-04-19T08:39:33;103069.25;;;10.47;45.40
64298;BME280;50639;53.270;7.956;2023-04-19T08:42:08;103061.00;;;10.50;44.87
64298;BME280;50639;53.270;7.956;2023-04-19T08:44:35;103067.47;;;10.57;45.69
64298;BME280;50639;53.270;7.956;2023-04-19T08:47:04;103061.63;;;10.64;44.51
64298;BME280;50639;53.270;7.956;2023-04-19T08:49:34;103060.78;;;10.73;45.47
64298;BME280;50639;53.270;7.956;2023-04-19T08:52:00;103067.38;;;10.69;46.81
64298;BME280;50639;53.270;7.956;2023-04-19T08:54:28;103056.28;;;10.83;43.88
64298;BME280;50639;53.270;7.956;2023-04-19T08:56:53;103061.78;;;10.91;43.80
64298;BME280;50639;53.270;7.956;2023-04-19T08:59:19;103053.66;;;11.02;42.06
64298;BME280;50639;53.270;7.956;2023-04-19T09:01:45;103057.06;;;11.04;41.10
64298;BME280;50639;53.270;7.956;2023-04-19T09:04:10;103056.75;;;10.98;42.87
64298;BME280;50639;53.270;7.956;2023-04-19T09:06:39;103052.81;;;11.02;43.82
64298;BME280;50639;53.270;7.956;2023-04-19T09:09:21;103054.38;;;11.14;44.39
64298;BME280;50639;53.270;7.956;2023-04-19T09:11:48;103038.63;;;11.20;44.77
64298;BME280;50639;53.270;7.956;2023-04-19T09:14:16;103046.91;;;11.27;44.89
64298;BME280;50639;53.270;7.956;2023-04-19T09:16:42;103033.97;;;11.32;43.10
64298;BME280;50639;53.270;7.956;2023-04-19T09:19:08;103034.25;;;11.39;43.24
64298;BME280;50639;53.270;7.956;2023-04-19T09:21:34;103030.88;;;11.37;42.62
64298;BME280;50639;53.270;7.956;2023-04-19T09:24:00;103027.78;;;11.22;42.03
64298;BME280;50639;53.270;7.956;2023-04-19T09:26:26;103022.69;;;11.48;43.56
64298;BME280;50639;53.270;7.956;2023-04-19T09:28:59;103019.19;;;11.47;44.10
64298;BME280;50639;53.270;7.956;2023-04-19T09:31:31;103013.09;;;11.55;42.66
64298;BME280;50639;53.270;7.956;2023-04-19T09:33:56;103019.03;;;11.58;42.92
64298;BME280;50639;53.270;7.956;2023-04-19T09:36:40;103008.47;;;11.57;42.84
64298;BME280;50639;53.270;7.956;2023-04-19T09:39:07;103009.84;;;11.61;43.18
64298;BME280;50639;53.270;7.956;2023-04-19T09:41:32;103000.97;;;11.70;43.46
64298;BME280;50639;53.270;7.956;2023-04-19T09:44:11;103000.13;;;11.79;42.63
64298;BME280;50639;53.270;7.956;2023-04-19T09:46:40;102991.66;;;11.84;41.28
64298;BME280;50639;53.270;7.956;2023-04-19T09:51:43;102987.66;;;11.97;39.18
64298;BME280;50639;53.270;7.956;2023-04-19T09:54:09;102981.00;;;12.11;41.12
64298;BME280;50639;53.270;7.956;2023-04-19T09:56:36;102987.69;;;12.25;40.37
64298;BME280;50639;53.270;7.956;2023-04-19T09:59:03;102977.34;;;12.39;39.83
64298;BME280;50639;53.270;7.956;2023-04-19T10:01:42;102971.28;;;12.37;40.86
64298;BME280;50639;53.270;7.956;2023-04-19T10:04:09;102969.94;;;12.24;41.27
64298;BME280;50639;53.270;7.956;2023-04-19T10:06:38;102967.75;;;12.37;42.53
64298;BME280;50639;53.270;7.956;2023-04-19T10:09:03;102976.63;;;12.10;41.05
64298;BME280;50639;53.270;7.956;2023-04-19T10:11:32;102972.31;;;12.27;42.38
64298;BME280;50639;53.270;7.956;2023-04-19T10:14:07;102963.69;;;12.33;42.00
64298;BME280;50639;53.270;7.956;2023-04-19T10:16:34;102962.53;;;12.35;42.76
64298;BME280;50639;53.270;7.956;2023-04-19T10:19:03;102975.09;;;12.35;41.74
64298;BME280;50639;53.270;7.956;2023-04-19T10:21:29;102969.72;;;12.35;43.33
64298;BME280;50639;53.270;7.956;2023-04-19T10:23:56;102962.41;;;12.37;43.00
64298;BME280;50639;53.270;7.956;2023-04-19T10:26:22;102958.50;;;12.49;43.18
64298;BME280;50639;53.270;7.956;2023-04-19T10:28:49;102947.19;;;12.55;42.34
64298;BME280;50639;53.270;7.956;2023-04-19T10:31:16;102938.16;;;12.56;41.19
64298;BME280;50639;53.270;7.956;2023-04-19T10:33:46;102946.56;;;12.61;40.62
64298;BME280;50639;53.270;7.956;2023-04-19T10:36:13;102945.03;;;12.59;40.25
64298;BME280;50639;53.270;7.956;2023-04-19T10:38:48;102935.88;;;12.79;41.74
64298;BME280;50639;53.270;7.956;2023-04-19T10:41:20;102919.41;;;12.92;39.71
64298;BME280;50639;53.270;7.956;2023-04-19T10:48:57;102921.88;;;13.11;39.22
64298;BME280;50639;53.270;7.956;2023-04-19T10:51:26;102911.94;;;12.86;37.76
64298;BME280;50639;53.270;7.956;2023-04-19T10:53:54;102907.81;;;13.09;39.19
64298;BME280;50639;53.270;7.956;2023-04-19T11:01:40;102897.16;;;13.17;38.40
64298;BME280;50639;53.270;7.956;2023-04-19T11:07:01;102881.41;;;13.04;36.80
64298;BME280;50639;53.270;7.956;2023-04-19T11:12:05;102878.28;;;13.27;37.35
64298;BME280;50639;53.270;7.956;2023-04-19T11:14:41;102877.63;;;13.59;37.84
64298;BME280;50639;53.270;7.956;2023-04-19T11:17:17;102868.72;;;13.58;36.40
64298;BME280;50639;53.270;7.956;2023-04-19T11:19:52;102867.19;;;13.55;35.72
64298;BME280;50639;53.270;7.956;2023-04-19T11:22:18;102873.28;;;13.66;36.18
64298;BME280;50639;53.270;7.956;2023-04-19T11:24:46;102857.22;;;13.82;36.60
64298;BME280;50639;53.270;7.956;2023-04-19T11:27:12;102868.53;;;13.51;34.11
64298;BME280;50639;53.270;7.956;2023-04-19T11:29:38;102851.09;;;13.64;34.64
64298;BME280;50639;53.270;7.956;2023-04-19T11:32:03;102850.38;;;13.79;36.54
64298;BME280;50639;53.270;7.956;2023-04-19T11:34:37;102844.69;;;13.99;34.93
64298;BME280;50639;53.270;7.956;2023-04-19T11:37:03;102827.75;;;13.98;35.75
64298;BME280;50639;53.270;7.956;2023-04-19T11:39:28;102824.75;;;14.09;36.13
64298;BME280;50639;53.270;7.956;2023-04-19T11:41:54;102828.28;;;14.10;35.65
64298;BME280;50639;53.270;7.956;2023-04-19T11:44:20;102818.44;;;13.76;34.51
64298;BME280;50639;53.270;7.956;2023-04-19T11:46:59;102808.75;;;14.00;33.95
64298;BME280;50639;53.270;7.956;2023-04-19T11:49:27;102808.63;;;14.09;34.83
64298;BME280;50639;53.270;7.956;2023-04-19T11:51:57;102799.56;;;14.10;34.05
64298;BME280;50639;53.270;7.956;2023-04-19T11:54:23;102807.19;;;13.81;32.95
64298;BME280;50639;53.270;7.956;2023-04-19T11:56:57;102797.66;;;13.86;33.51
64298;BME280;50639;53.270;7.956;2023-04-19T11:59:23;102790.28;;;13.88;35.08
64298;BME280;50639;53.270;7.956;2023-04-19T12:01:48;102819.22;;;14.11;33.64
64298;BME280;50639;53.270;7.956;2023-04-19T12:04:14;102818.91;;;14.30;34.77
64298;BME280;50639;53.270;7.956;2023-04-19T12:06:39;102798.25;;;14.30;34.12
64298;BME280;50639;53.270;7.956;2023-04-19T12:09:07;102793.03;;;14.29;35.71
64298;BME280;50639;53.270;7.956;2023-04-19T12:11:44;102797.06;;;14.25;33.58
64298;BME280;50639;53.270;7.956;2023-04-19T12:14:15;102798.09;;;14.32;32.93
64298;BME280;50639;53.270;7.956;2023-04-19T12:16:41;102793.38;;;14.34;34.11
64298;BME280;50639;53.270;7.956;2023-04-19T12:19:18;102777.16;;;13.77;33.24
64298;BME280;50639;53.270;7.956;2023-04-19T12:21:47;102769.69;;;14.13;36.27
64298;BME280;50639;53.270;7.956;2023-04-19T12:24:16;102778.75;;;14.12;34.19
64298;BME280;50639;53.270;7.956;2023-04-19T12:26:55;102777.56;;;14.07;33.44
64298;BME280;50639;53.270;7.956;2023-04-19T12:29:21;102776.88;;;14.05;33.04
64298;BME280;50639;53.270;7.956;2023-04-19T12:31:47;102769.16;;;14.18;33.88
64298;BME280;50639;53.270;7.956;2023-04-19T12:34:12;102760.31;;;14.66;34.94
64298;BME280;50639;53.270;7.956;2023-04-19T12:36:37;102772.75;;;14.59;32.73
64298;BME280;50639;53.270;7.956;2023-04-19T12:39:03;102765.84;;;14.48;32.53
64298;BME280;50639;53.270;7.956;2023-04-19T12:41:28;102767.34;;;14.75;32.98
64298;BME280;50639;53.270;7.956;2023-04-19T12:43:54;102759.28;;;14.83;31.05
64298;BME280;50639;53.270;7.956;2023-04-19T12:46:19;102745.84;;;14.67;32.55
64298;BME280;50639;53.270;7.956;2023-04-19T12:48:45;102757.09;;;14.71;33.36
64298;BME280;50639;53.270;7.956;2023-04-19T12:51:11;102753.25;;;14.41;32.83
64298;BME280;50639;53.270;7.956;2023-04-19T12:53:36;102737.53;;;13.79;32.79
64298;BME280;50639;53.270;7.956;2023-04-19T12:56:02;102750.16;;;13.95;33.41
64298;BME280;50639;53.270;7.956;2023-04-19T12:58:27;102747.34;;;14.13;33.73
64298;BME280;50639;53.270;7.956;2023-04-19T13:00:53;102741.31;;;14.43;34.52
64298;BME280;50639;53.270;7.956;2023-04-19T13:03:18;102730.19;;;14.30;32.38
64298;BME280;50639;53.270;7.956;2023-04-19T13:05:43;102751.88;;;14.28;32.57
64298;BME280;50639;53.270;7.956;2023-04-19T13:08:09;102731.06;;;14.55;33.77
64298;BME280;50639;53.270;7.956;2023-04-19T13:10:34;102723.63;;;14.81;32.49
64298;BME280;50639;53.270;7.956;2023-04-19T13:13:00;102724.97;;;14.37;33.13
64298;BME280;50639;53.270;7.956;2023-04-19T13:15:25;102715.91;;;14.70;33.36